Time;durP1;ratioP1;P1;durP2;ratioP2;P2;SDS_P1;SDS_P2;PMS_P1;PMS_P2;Temp;Humidity;BMP_temperature;BMP_pressure;BME280_temperature;BME280_humidity;BME280_pressure;Samples;Min_cycle;Max_cycle;Signal;HPM_P1;HPM_P2
2023/06/26 04:12:47;;;;;;;;;1.75;1.75;;;;;21.05;47.84;101695.94;5717904;23;44868;-93
2023/06/26 04:15:16;;;;;;;;;1.50;1.00;;;;;20.99;48.45;101704.28;4878243;29;45954;-95
2023/06/26 04:17:42;;;;;;;;;3.67;2.00;;;;;20.91;48.68;101691.53;4848684;29;45381;-96
2023/06/26 04:20:08;;;;;;;;;3.33;1.00;;;;;20.84;48.66;101688.44;4849308;29;45409;-95
2023/06/26 04:22:34;;;;;;;;;2.00;1.00;;;;;20.90;48.51;101703.94;4864618;29;45201;-94
2023/06/26 04:25:02;;;;;;;;;4.00;2.00;;;;;20.85;48.51;101708.66;4859570;29;46986;-96
2023/06/26 04:27:28;;;;;;;;;3.50;2.00;;;;;20.78;48.89;101700.25;4866366;29;45317;-95
2023/06/26 04:29:53;;;;;;;;;4.00;2.00;;;;;20.81;49.13;101705.34;4860226;29;45581;-95
2023/06/26 04:32:19;;;;;;;;;4.25;2.75;;;;;20.82;48.85;101709.69;4870807;29;45416;-95
2023/06/26 04:34:47;;;;;;;;;3.50;2.00;;;;;20.84;48.79;101712.25;4863321;29;48101;-95
2023/06/26 04:37:16;;;;;;;;;3.75;3.00;;;;;20.80;49.16;101714.25;4848035;29;45577;-94
2023/06/26 04:39:41;;;;;;;;;3.00;2.75;;;;;20.81;49.01;101730.94;4879182;29;45414;-94
2023/06/26 04:42:07;;;;;;;;;4.00;3.00;;;;;20.68;49.02;101710.56;4862039;29;45248;-96
2023/06/26 04:44:33;;;;;;;;;4.33;3.33;;;;;20.65;49.41;101709.91;4879909;29;45931;-95
2023/06/26 04:57:22;;;;;;;;;3.00;3.00;;;;;20.68;49.61;101718.50;4883456;29;45226;-95
2023/06/26 04:59:47;;;;;;;;;6.00;4.00;;;;;20.70;49.64;101732.47;4884485;29;45306;-96
2023/06/26 05:02:14;;;;;;;;;5.67;3.00;;;;;20.69;49.85;101724.66;4863894;29;45264;-96
2023/06/26 05:04:42;;;;;;;;;4.00;3.00;;;;;20.64;49.64;101716.16;4845429;29;45559;-94
2023/06/26 05:07:07;;;;;;;;;2.67;2.67;;;;;20.63;49.76;101719.72;4859037;29;46011;-96
2023/06/26 05:09:32;;;;;;;;;4.00;3.00;;;;;20.61;49.96;101719.84;4864188;29;45355;-95
2023/06/26 05:11:58;;;;;;;;;6.00;4.00;;;;;20.62;49.90;101726.81;4848941;29;45412;-94
2023/06/26 05:14:23;;;;;;;;;3.67;3.00;;;;;20.66;50.18;101741.56;4860875;29;45407;-94
2023/06/26 05:16:49;;;;;;;;;4.50;4.00;;;;;20.62;50.21;101741.84;4861460;29;47948;-93
2023/06/26 05:19:15;;;;;;;;;3.00;3.00;;;;;20.61;50.51;101742.78;4864850;29;44758;-95
2023/06/26 05:21:41;;;;;;;;;5.67;3.00;;;;;20.52;50.54;101741.56;4872969;29;45597;-95
2023/06/26 05:34:33;;;;;;;;;4.67;3.00;;;;;20.45;51.00;101746.38;4864760;29;45290;-96
2023/06/26 05:36:59;;;;;;;;;9.00;5.00;;;;;20.43;50.87;101751.75;4866449;29;45594;-94
2023/06/26 05:39:25;;;;;;;;;5.00;3.00;;;;;20.40;51.07;101751.97;4879568;29;45366;-94
2023/06/26 05:41:51;;;;;;;;;6.33;3.33;;;;;20.37;50.87;101764.53;4861429;29;45350;-94
2023/06/26 05:44:17;;;;;;;;;5.33;4.00;;;;;20.34;50.81;101757.63;4882121;29;45446;-95
2023/06/26 05:46:43;;;;;;;;;3.25;2.50;;;;;20.25;50.70;101748.47;4883597;29;45352;-96
2023/06/26 05:49:08;;;;;;;;;3.00;3.00;;;;;20.31;50.97;101759.63;4882861;29;45848;-95
2023/06/26 05:51:34;;;;;;;;;3.00;3.00;;;;;20.24;51.13;101756.50;4870028;29;44762;-96
2023/06/26 05:53:59;;;;;;;;;3.50;3.00;;;;;20.21;51.55;101765.44;4860173;29;45278;-96
2023/06/26 06:06:49;;;;;;;;;2.75;2.75;;;;;20.11;51.72;101751.09;4850071;29;45455;-96
2023/06/26 06:09:14;;;;;;;;;5.00;4.00;;;;;20.26;51.45;101768.66;4878059;29;45305;-96
2023/06/26 06:11:40;;;;;;;;;5.25;5.00;;;;;20.19;51.65;101748.00;4868278;29;45935;-96
2023/06/26 06:21:43;;;;;;;;;5.00;4.00;;;;;20.52;51.30;101770.66;4809837;29;46102;-96
2023/06/26 06:24:09;;;;;;;;;6.50;5.25;;;;;20.58;51.55;101772.91;4878444;29;45681;-96
2023/06/26 06:26:35;;;;;;;;;5.50;5.50;;;;;20.40;50.98;101749.31;4860255;29;46319;-95
2023/06/26 06:29:00;;;;;;;;;6.00;4.75;;;;;20.65;50.66;101776.88;4855631;29;45351;-95
2023/06/26 06:34:57;;;;;;;;;6.75;6.50;;;;;20.68;50.50;101766.09;4854717;29;45296;-94
2023/06/26 06:37:22;;;;;;;;;3.75;3.75;;;;;20.81;50.06;101783.84;4863547;29;45529;-95
2023/06/26 06:39:48;;;;;;;;;6.25;6.00;;;;;20.86;50.46;101778.28;4876407;29;45474;-94
2023/06/26 06:42:13;;;;;;;;;4.25;4.25;;;;;20.94;50.54;101786.59;4848064;29;45536;-95
2023/06/26 06:44:38;;;;;;;;;5.00;5.00;;;;;20.97;50.16;101791.69;4845687;29;47112;-94
2023/06/26 06:57:18;;;;;;;;;7.00;6.00;;;;;21.20;49.61;101798.16;4863442;29;45374;-96
2023/06/26 06:59:43;;;;;;;;;5.25;5.00;;;;;21.34;49.12;101810.47;4883952;29;45333;-95
2023/06/26 07:02:09;;;;;;;;;6.75;5.50;;;;;21.29;49.44;101802.00;4871231;29;45240;-94
2023/06/26 07:04:34;;;;;;;;;6.33;4.00;;;;;21.48;49.33;101814.88;4870724;29;44863;-95
2023/06/26 07:06:59;;;;;;;;;9.00;6.00;;;;;21.45;49.26;101801.00;4900242;29;47124;-94
2023/06/26 07:09:25;;;;;;;;;5.50;4.00;;;;;21.62;48.91;101811.31;4900048;29;45240;-96
2023/06/26 07:11:50;;;;;;;;;5.00;5.00;;;;;21.63;48.87;101794.47;4897170;29;45462;-94
2023/06/26 07:14:15;;;;;;;;;5.25;4.50;;;;;21.63;48.65;101791.81;4900066;29;45329;-95
2023/06/26 07:16:44;;;;;;;;;7.75;6.50;;;;;21.82;48.65;101819.78;4883712;29;47328;-96
2023/06/26 08:35:06;;;;;;;;;8.33;5.00;;;;;22.49;45.75;101857.69;4844582;29;46269;-93
2023/06/26 08:37:32;;;;;;;;;4.75;3.00;;;;;22.58;45.56;101856.22;4851238;29;45522;-94
2023/06/26 08:39:58;;;;;;;;;4.75;4.50;;;;;22.55;45.43;101845.84;4848702;29;45323;-94
2023/06/26 08:52:35;;;;;;;;;5.00;5.00;;;;;22.90;44.95;101846.94;4852052;29;45365;-92
2023/06/26 08:55:02;;;;;;;;;3.00;3.00;;;;;22.86;44.51;101832.22;4882595;29;45414;-94
2023/06/26 08:57:30;;;;;;;;;4.00;2.33;;;;;22.89;44.26;101839.94;4875582;29;45700;-91
2023/06/26 08:59:56;;;;;;;;;2.50;2.50;;;;;23.01;43.77;101854.16;4878654;29;45460;-93
2023/06/26 09:02:46;;;;;;;;;2.00;1.33;;;;;22.99;43.04;101862.22;4880012;29;45384;-95
2023/06/26 09:05:11;;;;;;;;;2.67;2.00;;;;;22.99;43.11;101848.97;4873476;29;45687;-94
2023/06/26 09:07:37;;;;;;;;;2.67;2.33;;;;;23.05;43.30;101860.97;4855048;29;45487;-95
2023/06/26 09:10:02;;;;;;;;;3.00;1.33;;;;;23.12;43.10;101861.34;4851183;29;45755;-92
2023/06/26 09:12:28;;;;;;;;;2.00;2.00;;;;;23.13;42.50;101847.97;4847264;29;45381;-96
2023/06/26 09:14:55;;;;;;;;;3.50;3.00;;;;;23.21;42.22;101858.03;4886888;29;45599;-94
2023/06/26 09:20:44;;;;;;;;;2.33;2.00;;;;;23.20;42.03;101849.22;4875752;29;45213;-95
2023/06/26 09:23:10;;;;;;;;;3.00;1.67;;;;;23.22;42.43;101851.75;4875714;29;45315;-92
2023/06/26 09:25:39;;;;;;;;;2.00;2.00;;;;;23.30;41.83;101851.19;4871879;29;45338;-93
2023/06/26 09:28:05;;;;;;;;;5.00;2.67;;;;;23.41;42.23;101856.59;4882117;29;45989;-95
2023/06/26 09:30:32;;;;;;;;;4.00;2.00;;;;;23.54;41.42;101845.06;4870679;29;45402;-93
2023/06/26 09:41:26;;;;;;;;;1.00;1.00;;;;;24.06;40.87;101847.44;4830565;29;45770;-96
2023/06/26 09:43:55;;;;;;;;;2.33;2.33;;;;;24.17;40.33;101862.59;4879517;29;45335;-95
2023/06/26 09:46:26;;;;;;;;;3.00;2.00;;;;;24.24;40.44;101850.50;4849447;29;45328;-93
2023/06/26 09:52:32;;;;;;;;;2.00;2.00;;;;;24.49;39.85;101854.78;4873033;29;45318;-93
2023/06/26 09:55:19;;;;;;;;;4.33;2.00;;;;;24.50;39.65;101847.66;4863598;29;45272;-94
2023/06/26 09:57:45;;;;;;;;;3.00;3.00;;;;;24.45;39.39;101836.53;4866874;29;45415;-93
2023/06/26 10:00:12;;;;;;;;;4.00;2.33;;;;;24.54;39.20;101843.78;4866000;29;45694;-94
2023/06/26 10:02:37;;;;;;;;;2.67;2.33;;;;;24.61;38.97;101852.97;4843514;29;45634;-93
2023/06/26 10:15:27;;;;;;;;;2.00;2.00;;;;;24.61;38.05;101865.44;4863111;29;45662;-92
2023/06/26 10:44:44;;;;;;;;;3.33;1.67;;;;;25.49;35.88;101874.44;4840195;29;46794;-93
2023/06/26 10:47:11;;;;;;;;;2.33;1.67;;;;;25.52;35.94;101865.34;4862084;29;45787;-92
2023/06/26 10:49:39;;;;;;;;;4.00;2.67;;;;;25.65;35.76;101865.19;4863679;29;45370;-94
2023/06/26 11:02:28;;;;;;;;;3.00;2.00;;;;;26.59;35.52;101863.56;4863397;29;45355;-92
2023/06/26 11:04:59;;;;;;;;;2.00;2.00;;;;;26.82;34.84;101863.38;4863085;29;45497;-94
2023/06/26 11:07:26;;;;;;;;;4.00;2.00;;;;;27.01;34.41;101857.28;4861572;29;48341;-92
2023/06/26 11:20:15;;;;;;;;;2.67;1.33;;;;;27.68;33.72;101858.50;4862816;29;45491;-92
2023/06/26 11:22:42;;;;;;;;;1.00;1.00;;;;;27.77;34.07;101871.00;4861742;29;45376;-93
2023/06/26 11:25:09;;;;;;;;;3.67;2.00;;;;;27.87;33.47;101871.81;4846430;29;45379;-93
2023/06/26 11:38:00;;;;;;;;;2.00;2.00;;;;;28.21;31.71;101875.00;4862833;29;45290;-92
2023/06/26 11:40:27;;;;;;;;;5.00;2.00;;;;;28.24;31.62;101878.25;4864551;29;45469;-92
2023/06/26 15:03:09;;;;;;;;;2.00;1.00;;;;;29.29;26.51;101842.41;4865129;29;45230;-93
2023/06/26 15:12:28;;;;;;;;;2.00;1.67;;;;;29.09;26.96;101849.75;4860577;29;45385;-94
2023/06/26 15:14:53;;;;;;;;;3.00;3.00;;;;;29.08;26.32;101840.84;4862181;29;45388;-93
2023/06/26 15:17:19;;;;;;;;;3.67;2.00;;;;;29.03;27.18;101837.81;4868368;29;45283;-93
2023/06/26 15:19:47;;;;;;;;;3.67;3.00;;;;;29.04;26.62;101843.97;4864734;29;46984;-93
2023/06/26 15:22:12;;;;;;;;;2.00;1.00;;;;;28.99;26.86;101849.81;4858779;29;45495;-94
2023/06/26 15:24:38;;;;;;;;;3.00;1.00;;;;;28.90;26.57;101831.94;4883485;29;45442;-93
2023/06/26 15:27:03;;;;;;;;;2.00;1.67;;;;;28.85;26.51;101834.19;4900031;29;45439;-93
2023/06/26 15:29:29;;;;;;;;;2.00;0.00;;;;;28.79;27.18;101836.47;4898862;29;45552;-92
2023/06/26 15:32:04;;;;;;;;;5.00;3.00;;;;;28.77;26.71;101837.63;4875013;29;45321;-93
2023/06/26 15:34:29;;;;;;;;;2.00;1.00;;;;;28.78;26.83;101841.97;4846884;29;45534;-93
2023/06/26 15:40:16;;;;;;;;;2.00;2.00;;;;;28.63;26.56;101850.53;4864706;29;45380;-93
2023/06/26 15:42:46;;;;;;;;;2.33;2.00;;;;;28.53;26.65;101839.88;4844135;29;45531;-93
2023/06/26 15:45:11;;;;;;;;;1.33;1.33;;;;;28.42;26.98;101834.72;4860631;29;45564;-93
2023/06/26 15:47:37;;;;;;;;;1.00;1.00;;;;;28.45;26.95;101837.06;4853721;29;45575;-92
2023/06/26 15:50:21;;;;;;;;;2.00;2.00;;;;;28.39;26.87;101838.53;4850550;29;46618;-94
2023/06/26 15:52:46;;;;;;;;;2.00;0.33;;;;;28.30;26.91;101834.03;4877086;29;45740;-92
2023/06/26 15:58:52;;;;;;;;;3.33;1.67;;;;;28.10;26.85;101827.88;4846400;29;45658;-93
2023/06/26 16:01:17;;;;;;;;;3.00;1.00;;;;;28.03;27.00;101838.31;4875274;29;47219;-93
2023/06/26 16:03:43;;;;;;;;;0.67;0.67;;;;;28.00;26.86;101846.63;4877908;29;44889;-94
2023/06/26 16:06:27;;;;;;;;;1.67;1.67;;;;;27.90;26.79;101837.78;4847326;29;45581;-94
2023/06/26 16:08:53;;;;;;;;;1.67;1.67;;;;;27.86;27.48;101840.72;4863150;29;45582;-94
2023/06/26 16:18:10;;;;;;;;;2.00;2.00;;;;;27.77;27.08;101856.78;4873495;29;45473;-94
2023/06/26 16:20:35;;;;;;;;;2.00;2.00;;;;;27.63;27.61;101845.53;4882794;29;45554;-95
2023/06/26 16:23:00;;;;;;;;;1.33;1.33;;;;;27.59;27.53;101849.50;4892686;29;47119;-93
2023/06/26 16:25:26;;;;;;;;;2.33;1.67;;;;;27.51;27.97;101852.84;4892968;29;45366;-94
2023/06/26 16:31:31;;;;;;;;;3.33;2.67;;;;;27.44;28.01;101851.72;4853341;29;46785;-94
2023/06/26 16:33:57;;;;;;;;;4.67;3.00;;;;;27.28;28.29;101850.44;4859260;29;48398;-96
2023/06/26 16:36:22;;;;;;;;;3.33;3.00;;;;;27.26;28.13;101843.53;4844416;29;45928;-94
2023/06/26 16:38:48;;;;;;;;;3.00;3.00;;;;;27.25;28.18;101853.38;4854826;29;45524;-94
2023/06/26 17:04:45;;;;;;;;;2.00;2.00;;;;;26.66;28.60;101866.56;1149012;23;46446;31
2023/06/26 17:07:22;;;;;;;;;3.00;2.00;;;;;26.57;28.66;101868.19;4877660;29;45930;-93
2023/06/26 17:09:47;;;;;;;;;3.00;1.33;;;;;26.33;28.28;101855.97;4863169;29;45651;-95
2023/06/26 17:12:17;;;;;;;;;4.00;2.00;;;;;26.26;28.30;101877.03;4896556;29;45381;-95
2023/06/26 17:21:26;;;;;;;;;2.00;2.00;;;;;26.12;28.07;101877.31;4874982;29;45399;-93
2023/06/26 17:23:51;;;;;;;;;2.00;2.00;;;;;26.10;28.43;101881.94;4865315;29;45258;-95
2023/06/26 17:26:18;;;;;;;;;1.00;1.00;;;;;26.07;28.41;101879.53;4861149;29;44943;-93
2023/06/26 17:28:44;;;;;;;;;2.67;2.33;;;;;26.05;28.55;101887.66;4890792;29;46207;-94
2023/06/26 17:31:09;;;;;;;;;0.67;0.67;;;;;26.02;28.68;101879.94;4861224;29;45388;-93
2023/06/26 17:33:54;;;;;;;;;1.67;1.00;;;;;26.02;28.13;101893.25;5032273;27;1838344;-92
2023/06/26 17:36:20;;;;;;;;;1.00;1.00;;;;;25.92;28.67;101881.69;5097130;27;45416;-91
2023/06/26 17:38:46;;;;;;;;;1.00;1.00;;;;;25.86;28.27;101889.22;5114899;27;45348;-92
2023/06/26 17:41:11;;;;;;;;;2.00;1.67;;;;;25.88;29.26;101902.41;5114868;27;45380;-92
2023/06/26 17:43:36;;;;;;;;;1.00;1.00;;;;;25.84;28.54;101907.16;5112438;27;46795;-93
2023/06/26 17:46:02;;;;;;;;;1.00;1.00;;;;;25.72;28.59;101905.50;5096879;27;45464;-93
2023/06/26 17:48:27;;;;;;;;;2.00;2.00;;;;;25.61;28.75;101904.56;5097391;27;45514;-93
2023/06/26 17:54:26;;;;;;;;;3.67;1.67;;;;;25.36;28.86;101892.38;5115367;27;45369;-93
2023/06/26 17:56:51;;;;;;;;;1.00;1.00;;;;;25.37;28.60;101904.75;5096654;27;45559;-92
2023/06/26 17:59:18;;;;;;;;;0.33;0.33;;;;;25.47;29.32;101918.16;5113127;27;45593;-92
2023/06/26 18:01:43;;;;;;;;;1.00;1.00;;;;;25.31;29.47;101900.75;5117997;27;45502;-94
2023/06/26 18:04:09;;;;;;;;;1.67;1.00;;;;;25.40;28.98;101917.78;5135862;27;46465;-92
2023/06/26 18:13:55;;;;;;;;;2.67;0.67;;;;;25.25;28.77;101927.88;5113263;27;45943;-92
2023/06/26 18:16:20;;;;;;;;;1.00;0.33;;;;;25.12;28.94;101911.19;5112016;27;46552;-93
2023/06/26 18:18:46;;;;;;;;;0.00;0.00;;;;;25.08;28.90;101914.09;5100707;27;45654;-93
2023/06/26 18:21:11;;;;;;;;;1.00;1.00;;;;;25.13;29.39;101927.03;5110108;27;45531;-92
2023/06/26 18:23:38;;;;;;;;;0.00;0.00;;;;;25.14;28.74;101931.41;5103654;27;45551;-93
2023/06/26 18:26:07;;;;;;;;;1.00;1.00;;;;;25.07;29.45;101920.41;5110957;27;45590;-92
2023/06/26 18:28:32;;;;;;;;;0.00;0.00;;;;;25.08;29.64;101921.22;5114003;27;45728;-92
2023/06/26 18:31:16;;;;;;;;;1.00;0.00;;;;;25.09;29.73;101931.75;5097226;27;45417;-93
2023/06/26 18:33:41;;;;;;;;;0.33;0.33;;;;;25.04;29.42;101927.78;5095807;27;45556;-93
2023/06/26 18:36:09;;;;;;;;;1.00;1.00;;;;;24.98;29.33;101929.09;5118116;27;45451;-94
2023/06/26 18:38:35;;;;;;;;;2.00;0.00;;;;;24.92;29.24;101930.44;5094319;27;45462;-93
2023/06/26 18:41:00;;;;;;;;;1.00;0.00;;;;;24.89;29.17;101927.16;5108892;27;45554;-93
2023/06/26 18:43:27;;;;;;;;;0.00;0.00;;;;;24.86;29.31;101919.44;5102023;27;45408;-94
2023/06/26 18:45:52;;;;;;;;;2.00;0.00;;;;;24.74;29.52;101919.41;5098986;27;45697;-95
2023/06/26 18:48:17;;;;;;;;;1.00;1.00;;;;;24.74;29.61;101927.38;5101969;27;45460;-94
2023/06/26 18:50:43;;;;;;;;;1.00;1.00;;;;;24.67;30.06;101926.19;5099351;27;45628;-93
2023/06/26 18:53:11;;;;;;;;;2.00;0.00;;;;;24.72;29.74;101933.78;5089525;27;45522;-94
2023/06/26 18:55:37;;;;;;;;;0.00;0.00;;;;;24.64;29.83;101934.38;5108162;27;47084;-93
2023/06/26 18:58:03;;;;;;;;;2.00;1.00;;;;;24.49;30.28;101915.97;5086027;27;45445;-96
2023/06/26 19:00:31;;;;;;;;;0.00;0.00;;;;;24.55;30.17;101934.13;5084569;27;45374;-93
2023/06/26 19:03:04;;;;;;;;;2.33;0.00;;;;;24.49;30.10;101918.63;5100249;27;45527;-95
2023/06/26 19:05:31;;;;;;;;;0.00;0.00;;;;;24.34;29.85;101901.22;5092219;27;47717;-93
2023/06/26 19:07:57;;;;;;;;;0.67;0.00;;;;;24.40;30.28;101930.00;5083549;27;45516;-93
2023/06/26 19:10:22;;;;;;;;;0.67;0.00;;;;;24.35;30.01;101927.66;5098438;27;45514;-94
2023/06/26 19:12:48;;;;;;;;;2.33;1.00;;;;;24.33;29.91;101923.44;5100654;27;45400;-95
2023/06/26 19:15:15;;;;;;;;;2.00;2.00;;;;;24.32;30.46;101937.69;5097248;27;47610;-93
2023/06/26 19:17:40;;;;;;;;;0.00;0.00;;;;;24.26;30.15;101926.56;5099749;27;45590;-94
2023/06/26 19:20:06;;;;;;;;;4.67;1.00;;;;;24.24;30.17;101943.59;5097260;27;45463;-95
2023/06/26 19:22:32;;;;;;;;;2.67;0.67;;;;;24.20;31.01;101934.19;5080933;27;44880;-93
2023/06/26 19:24:58;;;;;;;;;0.67;0.00;;;;;24.11;30.10;101925.91;5089167;27;48158;-94
2023/06/26 19:27:24;;;;;;;;;1.00;0.33;;;;;24.11;30.67;101936.56;5095375;27;45769;-94
2023/06/26 19:29:49;;;;;;;;;0.00;0.00;;;;;24.12;30.65;101942.72;5090370;27;45570;-93
2023/06/26 19:32:15;;;;;;;;;1.00;1.00;;;;;24.01;30.87;101933.72;5100522;27;45364;-94
2023/06/26 19:34:41;;;;;;;;;1.00;0.00;;;;;23.95;30.37;101922.69;5100407;27;46966;-94
2023/06/26 19:37:06;;;;;;;;;0.67;0.33;;;;;23.97;30.79;101940.22;5097591;27;45347;-94
2023/06/26 19:39:32;;;;;;;;;0.33;0.33;;;;;23.97;30.56;101947.34;5093402;27;46208;-94
2023/06/26 19:41:57;;;;;;;;;2.00;1.33;;;;;23.92;30.76;101953.00;5099001;27;45463;-94
2023/06/26 19:44:25;;;;;;;;;1.00;0.33;;;;;23.87;30.81;101952.47;5084842;27;47368;-95
2023/06/26 19:46:51;;;;;;;;;2.00;0.33;;;;;23.83;30.74;101956.34;5092345;27;45270;-93
2023/06/26 19:49:16;;;;;;;;;1.00;0.67;;;;;23.78;31.37;101956.66;5090645;27;45376;-94
2023/06/26 19:51:42;;;;;;;;;1.33;1.00;;;;;23.74;31.01;101958.69;5097165;27;46789;-93
2023/06/26 19:54:07;;;;;;;;;0.33;0.33;;;;;23.68;30.99;101959.16;5088262;27;47265;-93
2023/06/26 19:56:32;;;;;;;;;1.00;1.00;;;;;23.52;31.08;101939.97;5088547;27;45843;-93
2023/06/26 19:58:58;;;;;;;;;1.33;1.33;;;;;23.62;30.80;101968.41;5112145;27;45678;-92
2023/06/26 20:01:24;;;;;;;;;0.33;0.33;;;;;23.56;30.98;101960.88;5087293;27;45270;-94
2023/06/26 20:03:49;;;;;;;;;3.00;1.67;;;;;23.42;31.35;101945.13;5096442;27;48430;-94
2023/06/26 20:06:15;;;;;;;;;0.33;0.00;;;;;23.51;31.05;101976.31;5097283;27;45451;-93
2023/06/26 20:08:40;;;;;;;;;3.33;0.33;;;;;23.38;31.00;101959.56;5096981;27;45365;-93
2023/06/26 20:11:05;;;;;;;;;1.67;0.67;;;;;23.36;31.14;101970.28;5090542;27;45368;-93
2023/06/26 20:13:31;;;;;;;;;1.00;1.00;;;;;23.35;31.21;101974.78;5095514;27;47458;-93
2023/06/26 20:15:56;;;;;;;;;0.67;0.33;;;;;23.34;31.05;101980.19;5096963;27;45559;-93
2023/06/26 20:18:24;;;;;;;;;2.00;0.33;;;;;23.24;31.19;101974.66;5091754;27;45396;-93
2023/06/26 20:20:50;;;;;;;;;0.33;0.33;;;;;23.20;31.73;101975.81;5083838;27;46327;-93
2023/06/26 20:23:15;;;;;;;;;0.00;0.00;;;;;23.15;31.38;101977.94;5092661;27;47629;-92
2023/06/26 20:25:41;;;;;;;;;1.00;1.00;;;;;23.12;31.73;101980.81;5097411;27;45462;-93
2023/06/26 20:28:07;;;;;;;;;0.33;0.33;;;;;23.18;31.77;101999.81;5081192;27;45503;-93
2023/06/26 20:30:32;;;;;;;;;2.00;1.00;;;;;23.11;31.42;101992.38;5091012;27;45535;-93
2023/06/26 20:32:57;;;;;;;;;2.00;2.00;;;;;23.08;32.03;102015.53;5082183;27;47473;-94
2023/06/26 20:35:23;;;;;;;;;0.33;0.33;;;;;22.99;32.39;102005.56;5086386;27;45345;-93
2023/06/26 20:37:48;;;;;;;;;2.00;1.00;;;;;23.02;31.87;102004.50;5112510;27;45470;-93
2023/06/26 20:40:14;;;;;;;;;0.33;0.33;;;;;22.98;32.26;102005.66;5097402;27;46832;-93
2023/06/26 20:42:40;;;;;;;;;1.33;0.33;;;;;22.91;31.89;102002.59;5096694;27;47407;-93
2023/06/26 20:45:07;;;;;;;;;0.33;0.33;;;;;22.83;32.40;101990.69;5107085;27;45507;-94
2023/06/26 20:47:41;;;;;;;;;2.67;1.00;;;;;22.89;32.38;102013.31;5094051;27;45410;-92
2023/06/26 20:50:07;;;;;;;;;0.33;0.33;;;;;22.88;32.52;102013.41;5095481;27;45495;-93
2023/06/26 20:52:33;;;;;;;;;1.00;1.00;;;;;22.85;32.69;102014.47;5086521;27;47096;-92
2023/06/26 20:54:59;;;;;;;;;2.00;1.00;;;;;22.74;32.68;102003.75;5083180;27;45743;-93
2023/06/26 20:57:25;;;;;;;;;0.67;0.33;;;;;22.68;33.11;101995.25;5094495;27;45761;-93
2023/06/26 20:59:50;;;;;;;;;3.00;2.00;;;;;22.73;32.61;102002.88;5093595;27;45770;-93
2023/06/26 21:02:15;;;;;;;;;1.33;0.67;;;;;22.68;32.96;102005.03;5107565;27;47215;-92
2023/06/26 21:04:41;;;;;;;;;1.67;0.33;;;;;22.67;32.85;102006.81;5099620;27;45222;-91
2023/06/26 21:07:06;;;;;;;;;4.67;1.00;;;;;22.70;32.96;102019.00;5082818;27;45487;-92
2023/06/26 21:09:35;;;;;;;;;4.00;1.00;;;;;22.59;32.67;102005.63;5096563;27;45546;-93
2023/06/26 21:12:03;;;;;;;;;0.00;0.00;;;;;22.58;32.75;102010.06;5095037;27;48291;-93
2023/06/26 21:14:28;;;;;;;;;2.33;1.00;;;;;22.56;32.48;102009.34;5088570;27;46231;-94
2023/06/26 21:16:54;;;;;;;;;2.00;1.00;;;;;22.50;32.39;102007.06;5095409;27;45554;-94
2023/06/26 21:19:19;;;;;;;;;3.00;1.00;;;;;22.59;32.45;102025.03;5079084;27;45270;-93
2023/06/26 21:21:44;;;;;;;;;1.00;1.00;;;;;22.46;32.47;102008.22;5091006;27;46993;-93
2023/06/26 21:24:10;;;;;;;;;2.00;1.00;;;;;22.43;33.02;102004.84;5096227;27;44828;-92
2023/06/26 21:26:37;;;;;;;;;1.00;0.00;;;;;22.48;32.78;102019.56;5111453;27;45433;-93
2023/06/26 21:29:02;;;;;;;;;1.33;1.00;;;;;22.47;32.99;102018.72;5093766;27;45503;-93
2023/06/26 21:31:28;;;;;;;;;0.33;0.33;;;;;22.38;32.31;102009.59;5082633;27;47164;-94
2023/06/26 21:33:53;;;;;;;;;1.67;1.00;;;;;22.32;33.24;102006.47;5082671;27;45350;-93
2023/06/26 21:36:18;;;;;;;;;0.67;0.67;;;;;22.28;32.57;102000.53;5078827;27;45418;-94
2023/06/26 21:38:44;;;;;;;;;2.00;2.00;;;;;22.36;32.64;102018.59;5080207;27;45573;-93
2023/06/26 21:41:09;;;;;;;;;4.00;1.00;;;;;22.29;32.88;102011.06;5106773;27;47818;-94
2023/06/26 21:43:36;;;;;;;;;2.33;1.00;;;;;22.25;33.01;102006.03;5078889;27;45552;-92
2023/06/26 21:46:02;;;;;;;;;1.33;1.00;;;;;22.18;33.67;102002.97;5078826;27;45608;-93
2023/06/26 21:48:27;;;;;;;;;6.00;1.67;;;;;22.19;33.23;102015.25;5080055;27;45488;-93
2023/06/26 21:50:52;;;;;;;;;1.00;0.67;;;;;22.19;33.69;102023.22;5093810;27;47646;-93
2023/06/26 21:53:20;;;;;;;;;1.67;0.33;;;;;22.05;33.90;102015.28;5091613;27;45358;-94
2023/06/26 21:55:46;;;;;;;;;0.33;0.33;;;;;22.00;33.85;102007.66;5096950;27;45397;-92
2023/06/26 21:58:13;;;;;;;;;1.00;1.00;;;;;22.00;33.70;102023.53;5080168;27;45306;-92
2023/06/26 22:00:44;;;;;;;;;2.00;1.00;;;;;21.99;33.56;102028.00;5084449;27;48669;-95
2023/06/26 22:03:33;;;;;;;;;1.00;1.00;;;;;21.99;33.43;102021.84;5039740;28;45398;-89
2023/06/26 22:05:59;;;;;;;;;1.33;1.33;;;;;21.81;33.57;101994.72;4995481;28;45357;-89
2023/06/26 22:08:27;;;;;;;;;2.00;2.00;;;;;21.85;33.65;102018.28;5008553;28;45449;-89
2023/06/26 22:10:52;;;;;;;;;1.00;1.00;;;;;21.83;34.33;102016.66;5006002;28;46522;-89
2023/06/26 22:13:21;;;;;;;;;1.33;1.00;;;;;21.94;34.16;102026.59;5010748;28;45454;-89
2023/06/26 22:15:49;;;;;;;;;1.00;1.00;;;;;21.84;34.16;102023.69;5013222;28;45541;-89
2023/06/26 22:20:56;;;;;;;;;3.67;0.00;;;;;21.86;33.88;102030.56;5559945;22;46007;-91
2023/06/26 22:23:21;;;;;;;;;1.00;1.00;;;;;21.85;34.10;102030.69;5000824;28;45877;-93
2023/06/26 22:25:46;;;;;;;;;2.67;0.00;;;;;21.81;34.08;102030.03;5003058;28;45449;-92
2023/06/26 22:28:12;;;;;;;;;1.00;1.00;;;;;21.71;34.03;102015.66;4997644;28;45427;-93
2023/06/26 22:30:37;;;;;;;;;3.00;1.00;;;;;21.79;34.22;102034.56;4997211;28;46243;-92
2023/06/26 22:33:03;;;;;;;;;1.00;1.00;;;;;21.74;34.42;102026.91;4994338;28;45538;-92
2023/06/26 22:35:28;;;;;;;;;1.00;1.00;;;;;21.72;34.66;102026.16;4962942;28;45475;-92
2023/06/26 22:37:56;;;;;;;;;1.33;1.00;;;;;21.60;34.70;102009.22;4955467;28;45738;-92
2023/06/26 22:40:21;;;;;;;;;0.67;0.33;;;;;21.62;34.40;102015.25;4951097;28;45865;-92
2023/06/26 22:42:47;;;;;;;;;1.00;1.00;;;;;21.61;34.45;102018.84;4947478;28;45656;-91
2023/06/26 22:45:13;;;;;;;;;2.00;1.00;;;;;21.59;34.33;102017.25;4962443;28;45384;-92
2023/06/26 22:47:43;;;;;;;;;0.67;0.67;;;;;21.60;34.86;102025.09;4962935;28;45495;-93
2023/06/26 22:50:09;;;;;;;;;1.00;1.00;;;;;21.45;34.63;102004.88;4943261;28;45529;-92
2023/06/26 22:52:34;;;;;;;;;1.00;1.00;;;;;21.45;35.18;102005.75;4941335;28;45667;-93
2023/06/26 22:55:02;;;;;;;;;2.00;1.67;;;;;21.51;34.61;102023.03;4942722;28;45686;-92
2023/06/26 22:57:41;;;;;;;;;3.00;1.00;;;;;21.48;34.89;102024.06;4929821;28;45687;-92
2023/06/26 23:00:14;;;;;;;;;1.00;1.00;;;;;21.31;34.82;102009.25;4956566;28;46377;-95
2023/06/26 23:02:49;;;;;;;;;1.67;1.67;;;;;21.32;35.02;102021.53;4971406;28;45447;-94
2023/06/26 23:05:21;;;;;;;;;0.00;0.00;;;;;21.17;35.38;101996.00;4969255;28;45414;-94
2023/06/26 23:08:01;;;;;;;;;2.00;0.00;;;;;21.20;35.31;102006.41;5001975;28;45380;-93
2023/06/26 23:10:50;;;;;;;;;1.67;0.67;;;;;21.26;35.43;102026.34;5000127;28;45645;-94
2023/06/26 23:13:16;;;;;;;;;1.00;1.00;;;;;21.06;35.47;101994.03;4975708;28;45478;-92
2023/06/26 23:15:44;;;;;;;;;2.33;1.00;;;;;21.17;35.53;102014.53;4977188;28;45432;-96
2023/06/26 23:18:12;;;;;;;;;1.00;0.00;;;;;21.03;35.55;102003.00;4961134;28;45326;-95
2023/06/26 23:20:38;;;;;;;;;1.00;1.00;;;;;21.02;35.61;102011.84;4960202;28;46885;-94
2023/06/26 23:23:07;;;;;;;;;1.00;1.00;;;;;21.00;35.60;102018.19;4961289;28;45381;-96
2023/06/26 23:25:37;;;;;;;;;1.00;0.00;;;;;20.90;35.42;101994.94;4976557;28;45487;-94
2023/06/26 23:28:03;;;;;;;;;0.33;0.33;;;;;20.99;35.25;102017.34;4959917;28;45544;-93
2023/06/26 23:30:34;;;;;;;;;1.00;1.00;;;;;20.88;35.63;102003.91;4960784;28;47070;-94
2023/06/26 23:33:05;;;;;;;;;2.00;1.00;;;;;21.01;35.63;102017.25;4959238;28;45456;-94
2023/06/26 23:35:30;;;;;;;;;3.00;1.00;;;;;20.88;35.83;101993.31;4951348;28;46642;-94
2023/06/26 23:37:56;;;;;;;;;1.00;1.00;;;;;20.96;35.87;102010.44;4960952;28;45400;-94
2023/06/26 23:40:25;;;;;;;;;1.00;1.00;;;;;21.07;35.70;102038.88;4961535;28;47824;-95
2023/06/26 23:42:53;;;;;;;;;1.00;1.00;;;;;20.90;35.89;102002.00;4960999;28;45578;-95
2023/06/26 23:45:24;;;;;;;;;1.00;1.00;;;;;21.04;35.74;102039.09;4997229;28;45530;-95